createdAt,value
2018-04-25T00:00:59.447Z,14.50
2018-04-25T00:05:01.975Z,14.40
2018-04-25T00:09:10.483Z,14.40
2018-04-25T00:13:12.991Z,14.30
2018-04-25T00:17:15.539Z,14.30
2018-04-25T00:21:18.840Z,14.40
2018-04-25T00:25:21.392Z,14.30
2018-04-25T00:29:23.906Z,14.30
2018-04-25T00:33:26.442Z,14.40
2018-04-25T00:37:28.963Z,14.40
2018-04-25T00:41:36.985Z,14.40
2018-04-25T00:45:39.576Z,14.40
2018-04-25T00:49:42.867Z,14.50
2018-04-25T00:53:45.374Z,14.50
2018-04-25T00:57:47.920Z,14.50
2018-04-25T01:01:50.438Z,14.50
2018-04-25T01:05:54.080Z,14.50
2018-04-25T01:09:56.606Z,14.50
2018-04-25T01:13:59.163Z,14.50
2018-04-25T01:18:01.700Z,14.50
2018-04-25T01:22:04.239Z,14.40
2018-04-25T01:26:06.816Z,14.30
2018-04-25T01:30:09.321Z,14.20
2018-04-25T01:34:16.511Z,14.00
2018-04-25T01:38:19.047Z,14.00
2018-04-25T01:42:26.442Z,13.90
2018-04-25T01:46:31.501Z,13.70
2018-04-25T01:50:37.003Z,13.40
2018-04-25T01:54:52.197Z,13.20
2018-04-25T01:59:07.220Z,12.90
2018-04-25T02:03:27.280Z,12.80
2018-04-25T02:07:29.799Z,12.80
2018-04-25T02:11:32.343Z,12.80
2018-04-25T02:15:34.851Z,12.80
2018-04-25T02:19:37.490Z,12.80
2018-04-25T02:23:44.051Z,12.70
2018-04-25T02:27:46.595Z,12.70
2018-04-25T02:31:49.148Z,12.70
2018-04-25T02:35:51.802Z,12.70
2018-04-25T02:39:55.086Z,12.70
2018-04-25T02:43:58.431Z,12.60
2018-04-25T02:48:00.951Z,12.60
2018-04-25T02:52:03.501Z,12.70
2018-04-25T02:56:06.058Z,12.80
2018-04-25T03:00:08.759Z,12.70
2018-04-25T03:04:11.279Z,12.70
2018-04-25T03:08:18.938Z,12.60
2018-04-25T03:12:21.445Z,12.50
2018-04-25T03:16:24.075Z,12.50
2018-04-25T03:20:27.352Z,12.70
2018-04-25T03:24:29.895Z,12.60
2018-04-25T03:28:32.432Z,12.70
2018-04-25T03:32:34.979Z,12.90
2018-04-25T03:36:37.490Z,13.10
2018-04-25T03:40:40.047Z,13.00
2018-04-25T03:44:42.586Z,13.10
2018-04-25T03:48:45.130Z,13.30
2018-04-25T03:52:48.411Z,13.30
2018-04-25T03:56:51.043Z,13.30
2018-04-25T04:00:53.556Z,13.40
2018-04-25T04:04:56.100Z,13.40
2018-04-25T04:08:58.611Z,13.30
2018-04-25T04:13:01.184Z,13.40
2018-04-25T04:17:03.690Z,13.40
2018-04-25T04:21:06.235Z,13.40
2018-04-25T04:25:08.754Z,13.60
2018-04-25T04:29:11.293Z,13.60
2018-04-25T04:33:13.807Z,13.70
2018-04-25T04:37:17.119Z,13.70
2018-04-25T04:41:19.647Z,13.70
2018-04-25T04:45:23.951Z,13.70
2018-04-25T04:49:26.495Z,13.60
2018-04-25T04:53:29.040Z,13.80
2018-04-25T04:57:33.604Z,13.80
2018-04-25T05:01:37.258Z,13.90
2018-04-25T05:05:39.772Z,14.10
2018-04-25T05:09:42.305Z,14.10
2018-04-25T05:13:45.774Z,14.20
2018-04-25T05:17:50.354Z,14.10
2018-04-25T05:21:52.876Z,14.40
2018-04-25T05:25:55.438Z,14.40
2018-04-25T05:29:57.951Z,14.60
2018-04-25T05:34:04.671Z,14.70
2018-04-25T05:38:11.232Z,14.70
2018-04-25T05:42:13.923Z,14.70
2018-04-25T05:46:16.470Z,14.80
2018-04-25T05:50:19.019Z,14.80
2018-04-25T05:54:21.631Z,14.80
2018-04-25T05:58:24.207Z,14.80
2018-04-25T06:02:27.710Z,14.70
2018-04-25T06:06:30.258Z,14.80
2018-04-25T06:10:32.774Z,15.00
2018-04-25T06:14:36.078Z,15.00
2018-04-25T06:18:38.590Z,14.90
2018-04-25T06:22:41.898Z,14.80
2018-04-25T06:26:44.419Z,14.80
2018-04-25T06:30:47.730Z,14.80
2018-04-25T06:34:50.243Z,14.70
2018-04-25T06:38:55.100Z,14.80
2018-04-25T06:42:57.609Z,14.80
2018-04-25T06:47:02.866Z,14.70
2018-04-25T06:51:05.379Z,14.70
2018-04-25T06:55:08.707Z,15.00
2018-04-25T06:59:11.284Z,14.90
2018-04-25T07:03:13.837Z,15.00
2018-04-25T07:07:16.382Z,15.30
2018-04-25T07:11:19.010Z,15.90
2018-04-25T07:15:21.521Z,16.70
2018-04-25T07:19:24.459Z,18.00
2018-04-25T07:23:27.744Z,21.40
2018-04-25T07:27:31.466Z,21.30
2018-04-25T07:31:33.983Z,22.60
2018-04-25T07:35:36.612Z,22.00
2018-04-25T07:39:39.127Z,20.50
2018-04-25T07:43:42.519Z,18.10
2018-04-25T07:47:45.035Z,18.00
2018-04-25T07:51:47.935Z,17.40
2018-04-25T07:55:50.486Z,17.10
2018-04-25T07:59:53.878Z,16.90
2018-04-25T08:03:56.386Z,16.80
2018-04-25T08:07:59.308Z,16.60
2018-04-25T08:12:16.973Z,16.60
2018-04-25T08:16:31.455Z,16.60
2018-04-25T08:20:45.759Z,16.50
2018-04-25T08:24:49.066Z,16.30
2018-04-25T08:28:51.583Z,16.20
2018-04-25T08:32:55.011Z,16.00
2018-04-25T08:36:57.508Z,16.00
2018-04-25T08:41:04.699Z,15.90
2018-04-25T08:45:07.293Z,15.90
2018-04-25T08:49:10.635Z,15.90
2018-04-25T08:53:14.122Z,15.80
2018-04-25T08:57:16.682Z,15.90
2018-04-25T09:01:19.205Z,16.00
2018-04-25T09:05:22.547Z,16.20
2018-04-25T09:09:25.062Z,16.20
2018-04-25T09:13:28.466Z,16.20
2018-04-25T09:17:30.986Z,16.10
2018-04-25T09:21:33.524Z,16.20
2018-04-25T09:25:36.041Z,16.20
2018-04-25T09:29:38.584Z,16.20
2018-04-25T09:33:41.863Z,16.30
2018-04-25T09:37:44.783Z,16.30
2018-04-25T09:41:49.299Z,16.40
2018-04-25T09:45:51.885Z,16.40
2018-04-25T09:49:54.382Z,16.30
2018-04-25T09:54:03.503Z,16.30
2018-04-25T09:58:06.087Z,16.20
2018-04-25T10:02:24.659Z,16.50
2018-04-25T10:06:27.171Z,16.40
2018-04-25T10:10:29.822Z,16.50
2018-04-25T10:14:32.344Z,16.40
2018-04-25T10:18:35.731Z,16.20
2018-04-25T10:22:38.239Z,16.10
2018-04-25T10:26:40.790Z,16.20
2018-04-25T10:30:43.334Z,16.20
2018-04-25T10:34:45.991Z,16.30
2018-04-25T10:38:49.282Z,16.70
2018-04-25T10:42:51.919Z,16.70
2018-04-25T10:46:55.207Z,16.70
2018-04-25T10:50:58.141Z,16.60
2018-04-25T10:55:00.664Z,16.60
2018-04-25T10:59:04.064Z,15.80
2018-04-25T11:03:06.654Z,15.80
2018-04-25T11:07:09.607Z,15.50
2018-04-25T11:11:12.886Z,15.20
2018-04-25T11:15:15.443Z,15.10
2018-04-25T11:19:23.932Z,15.10
2018-04-25T11:23:26.855Z,15.00
2018-04-25T11:27:29.387Z,15.00
2018-04-25T11:31:31.929Z,15.10
2018-04-25T11:35:34.447Z,15.10
2018-04-25T11:39:37.316Z,15.10
2018-04-25T11:43:39.838Z,15.20
2018-04-25T11:47:43.170Z,15.50
2018-04-25T11:51:46.453Z,15.90
2018-04-25T11:55:49.011Z,15.80
2018-04-25T11:59:54.914Z,16.20
2018-04-25T12:03:57.979Z,16.50
2018-04-25T12:08:00.494Z,16.70
2018-04-25T12:12:03.809Z,16.80
2018-04-25T12:16:06.326Z,16.80
2018-04-25T12:20:09.633Z,17.30
2018-04-25T12:24:12.152Z,17.30
2018-04-25T12:28:15.460Z,17.90
2018-04-25T12:32:25.288Z,17.90
2018-04-25T12:36:27.851Z,17.90
2018-04-25T12:40:30.370Z,17.90
2018-04-25T12:44:37.079Z,17.90
2018-04-25T12:48:39.593Z,17.90
2018-04-25T12:52:42.247Z,17.80
2018-04-25T12:56:56.093Z,17.70
2018-04-25T13:00:58.767Z,17.60
2018-04-25T13:05:02.099Z,17.30
2018-04-25T13:09:04.662Z,17.30
2018-04-25T13:13:07.166Z,17.20
2018-04-25T13:17:14.563Z,17.10
2018-04-25T13:21:19.020Z,17.10
2018-04-25T13:25:26.389Z,17.00
2018-04-25T13:29:43.755Z,16.70
2018-04-25T13:33:46.344Z,16.60
2018-04-25T13:37:51.607Z,16.50
2018-04-25T13:41:54.507Z,16.50
2018-04-25T13:45:57.029Z,16.60
2018-04-25T13:50:05.835Z,16.70
2018-04-25T13:54:08.371Z,16.70
2018-04-25T13:58:10.924Z,17.00
2018-04-25T14:02:14.206Z,17.20
2018-04-25T14:06:16.759Z,17.20
2018-04-25T14:10:21.238Z,17.30
2018-04-25T14:14:24.786Z,17.40
2018-04-25T14:18:28.268Z,17.40
2018-04-25T14:22:30.833Z,17.40
2018-04-25T14:26:34.121Z,17.50
2018-04-25T14:30:36.695Z,17.50
2018-04-25T14:34:39.210Z,17.50
2018-04-25T14:38:49.809Z,17.40
2018-04-25T14:42:52.330Z,17.40
2018-04-25T14:46:55.908Z,17.40
2018-04-25T14:50:59.218Z,17.40
2018-04-25T14:55:05.621Z,17.30
2018-04-25T14:59:08.902Z,17.40
2018-04-25T15:03:11.457Z,17.40
2018-04-25T15:07:14.791Z,17.50
2018-04-25T15:11:17.355Z,17.50
2018-04-25T15:15:19.885Z,17.50
2018-04-25T15:19:25.172Z,17.40
2018-04-25T15:23:27.759Z,17.30
2018-04-25T15:27:31.708Z,17.60
2018-04-25T15:31:35.004Z,17.60
2018-04-25T15:35:37.547Z,17.60
2018-04-25T15:39:41.018Z,17.50
2018-04-25T15:43:44.503Z,17.40
2018-04-25T15:47:48.090Z,17.30
2018-04-25T15:51:51.304Z,17.40
2018-04-25T15:55:53.826Z,17.40
2018-04-25T15:59:56.358Z,17.30
2018-04-25T16:03:58.886Z,17.20
2018-04-25T16:08:01.523Z,17.00
2018-04-25T16:12:04.058Z,17.00
2018-04-25T16:16:21.680Z,16.90
2018-04-25T16:20:26.145Z,16.80
2018-04-25T16:24:28.691Z,16.80
2018-04-25T16:28:31.986Z,16.80
2018-04-25T16:32:34.546Z,16.70
2018-04-25T16:36:37.065Z,16.80
2018-04-25T16:40:39.900Z,16.90
2018-04-25T16:44:43.516Z,16.90
2018-04-25T16:48:51.536Z,17.00
2018-04-25T16:52:54.842Z,16.90
2018-04-25T16:56:57.516Z,16.80
2018-04-25T17:01:00.033Z,16.80
2018-04-25T17:05:02.614Z,16.80
2018-04-25T17:09:05.130Z,16.60
2018-04-25T17:13:07.678Z,16.50
2018-04-25T17:17:10.187Z,16.40
2018-04-25T17:21:13.031Z,16.20
2018-04-25T17:25:15.557Z,16.20
2018-04-25T17:29:18.191Z,16.10
2018-04-25T17:33:20.729Z,16.00
2018-04-25T17:37:24.299Z,16.00
2018-04-25T17:41:26.817Z,15.90
2018-04-25T17:45:30.150Z,15.70
2018-04-25T17:49:33.439Z,15.60
2018-04-25T17:53:36.023Z,15.50
2018-04-25T17:57:45.155Z,15.50
2018-04-25T18:01:53.077Z,15.50
2018-04-25T18:05:56.711Z,15.50
2018-04-25T18:10:00.619Z,15.40
2018-04-25T18:14:03.145Z,15.30
2018-04-25T18:18:06.455Z,15.20
2018-04-25T18:22:08.971Z,15.20
2018-04-25T18:26:13.379Z,15.10
2018-04-25T18:30:20.106Z,15.00
2018-04-25T18:34:28.445Z,14.90
2018-04-25T18:38:34.497Z,14.80
2018-04-25T18:42:37.038Z,14.70
2018-04-25T18:46:39.560Z,14.50
2018-04-25T18:50:54.739Z,14.30
2018-04-25T18:55:00.682Z,14.20
2018-04-25T18:59:06.727Z,14.10
2018-04-25T19:03:13.223Z,13.80
2018-04-25T19:07:16.836Z,13.70
2018-04-25T19:11:19.415Z,13.80
2018-04-25T19:15:22.035Z,13.60
2018-04-25T19:19:24.553Z,13.40
2018-04-25T19:23:27.114Z,13.30
2018-04-25T19:27:31.590Z,13.40
2018-04-25T19:31:34.151Z,13.30
2018-04-25T19:35:37.455Z,13.30
2018-04-25T19:39:43.942Z,13.30
2018-04-25T19:43:46.570Z,13.30
2018-04-25T19:47:49.972Z,13.50
2018-04-25T19:51:52.492Z,13.40
2018-04-25T19:55:56.032Z,13.60
2018-04-25T19:59:59.524Z,13.70
2018-04-25T20:04:02.081Z,13.70
2018-04-25T20:08:05.369Z,13.70
2018-04-25T20:12:08.010Z,13.60
2018-04-25T20:16:10.557Z,13.70
2018-04-25T20:20:13.413Z,13.70
2018-04-25T20:24:15.912Z,13.70
2018-04-25T20:28:18.462Z,13.70
2018-04-25T20:32:20.983Z,13.60
2018-04-25T20:36:23.525Z,13.60
2018-04-25T20:40:27.001Z,13.60
2018-04-25T20:44:29.562Z,13.70
2018-04-25T20:48:33.043Z,13.70
2018-04-25T20:52:35.608Z,13.70
2018-04-25T20:56:38.899Z,13.60
2018-04-25T21:00:41.475Z,13.50
2018-04-25T21:04:43.997Z,13.50
2018-04-25T21:08:46.595Z,13.60
2018-04-25T21:12:49.111Z,13.60
2018-04-25T21:16:55.003Z,13.60
2018-04-25T21:20:58.504Z,13.60
2018-04-25T21:25:03.119Z,13.50
2018-04-25T21:29:06.408Z,13.60
2018-04-25T21:33:08.975Z,13.50
2018-04-25T21:37:11.488Z,13.60
2018-04-25T21:41:14.127Z,13.60
2018-04-25T21:45:17.399Z,13.60
2018-04-25T21:49:23.731Z,13.50
2018-04-25T21:53:26.275Z,13.50
2018-04-25T21:57:29.251Z,13.50
2018-04-25T22:01:31.768Z,13.40
2018-04-25T22:05:34.702Z,13.40
2018-04-25T22:09:50.752Z,13.50
2018-04-25T22:13:53.438Z,13.30
2018-04-25T22:17:55.975Z,13.30
2018-04-25T22:22:03.654Z,13.20
2018-04-25T22:26:06.162Z,13.20
2018-04-25T22:30:08.710Z,13.10
2018-04-25T22:34:11.273Z,13.00
2018-04-25T22:38:13.872Z,12.90
2018-04-25T22:42:16.382Z,12.80
2018-04-25T22:46:18.954Z,12.70
2018-04-25T22:50:21.467Z,12.70
2018-04-25T22:54:25.594Z,12.40
2018-04-25T22:58:28.188Z,12.40
2018-04-25T23:02:34.558Z,12.20
2018-04-25T23:06:37.075Z,12.10
2018-04-25T23:10:41.695Z,12.00
2018-04-25T23:14:44.255Z,12.00
2018-04-25T23:18:47.758Z,11.80
2018-04-25T23:22:50.268Z,11.80
2018-04-25T23:26:53.587Z,11.60
2018-04-25T23:30:56.110Z,11.50
2018-04-25T23:34:59.414Z,11.40
2018-04-25T23:39:01.924Z,11.40
2018-04-25T23:43:04.476Z,11.30
2018-04-25T23:47:06.995Z,11.30
2018-04-25T23:51:09.555Z,11.20
2018-04-25T23:55:12.826Z,11.10
2018-04-25T23:59:15.378Z,11.00
